Time;durP1;ratioP1;P1;durP2;ratioP2;P2;SDS_P1;SDS_P2;PMS_P1;PMS_P2;Temp;Humidity;BMP_temperature;BMP_pressure;BME280_temperature;BME280_humidity;BME280_pressure;Samples;Min_cycle;Max_cycle;Signal;HPM_P1;HPM_P2
2023/08/21 00:02:12;;;;;;;5.38;2.22;;;;;;;17.57;92.55;102362.44;6253495;22;20050;-78
2023/08/21 00:04:39;;;;;;;4.68;2.33;;;;;;;17.54;92.36;102360.66;6279860;22;20020;-78
2023/08/21 00:07:06;;;;;;;5.07;2.17;;;;;;;17.53;92.86;102361.84;6280233;22;20012;-78
2023/08/21 00:09:33;;;;;;;4.35;1.90;;;;;;;17.53;92.31;102367.22;6252613;22;20016;-78
2023/08/21 00:11:59;;;;;;;5.55;2.38;;;;;;;17.51;92.63;102363.50;6280655;22;20311;-78
2023/08/21 00:14:26;;;;;;;3.95;2.30;;;;;;;17.42;92.78;102372.31;6280059;22;20009;-78
2023/08/21 00:16:53;;;;;;;5.30;2.20;;;;;;;17.42;93.33;102372.31;6253299;22;20050;-78
2023/08/21 00:19:19;;;;;;;2.25;2.00;;;;;;;17.41;93.63;102373.50;6280159;22;20020;-78
2023/08/21 00:21:46;;;;;;;4.80;2.13;;;;;;;17.38;93.24;102366.31;6280229;22;20017;-78
2023/08/21 00:24:14;;;;;;;6.03;1.77;;;;;;;17.32;93.66;102376.91;6280647;22;20083;-78
2023/08/21 00:26:41;;;;;;;4.47;1.75;;;;;;;17.31;93.76;102364.66;6279852;22;20072;-78
2023/08/21 00:29:08;;;;;;;4.53;1.98;;;;;;;17.32;93.40;102370.78;6227887;22;20026;-78
2023/08/21 00:31:34;;;;;;;3.30;2.20;;;;;;;17.33;93.01;102375.72;6252290;22;20020;-78
2023/08/21 00:34:01;;;;;;;3.20;2.15;;;;;;;17.30;93.06;102371.22;6280448;22;20021;-78
2023/08/21 00:36:27;;;;;;;2.33;1.65;;;;;;;17.27;93.64;102371.38;6278931;22;20019;-78
2023/08/21 00:38:54;;;;;;;7.50;2.15;;;;;;;17.25;93.63;102365.69;6227818;22;20020;-78
2023/08/21 00:41:21;;;;;;;5.50;2.42;;;;;;;17.23;94.00;102373.47;6227095;22;20022;-78
2023/08/21 00:43:47;;;;;;;3.13;2.10;;;;;;;17.24;94.08;102358.81;6227833;22;20024;-78
2023/08/21 00:46:15;;;;;;;4.60;2.20;;;;;;;17.24;94.32;102358.81;6280581;22;20012;-79
2023/08/21 00:48:44;;;;;;;3.22;1.98;;;;;;;17.26;94.12;102364.50;6279923;22;20016;-79
2023/08/21 00:51:14;;;;;;;3.25;2.65;;;;;;;17.27;93.86;102363.31;6226875;22;20016;-78
2023/08/21 00:53:41;;;;;;;3.40;2.20;;;;;;;17.25;93.68;102358.38;6280098;22;20403;-78
2023/08/21 00:56:09;;;;;;;3.75;2.10;;;;;;;17.25;94.06;102357.63;6279621;22;20047;-78
2023/08/21 00:58:37;;;;;;;3.95;2.03;;;;;;;17.24;93.82;102359.56;6251895;22;20727;-77
2023/08/21 01:01:04;;;;;;;3.03;2.17;;;;;;;17.22;94.34;102367.31;6280308;22;20016;-77
2023/08/21 01:03:31;;;;;;;6.45;2.08;;;;;;;17.17;95.17;102361.81;6251843;22;20024;-77
2023/08/21 01:05:58;;;;;;;4.72;2.60;;;;;;;17.15;94.60;102362.25;6252265;22;20348;-77
2023/08/21 01:08:52;;;;;;;8.45;2.53;;;;;;;17.16;94.60;102347.63;6252220;22;20020;-77
2023/08/21 01:11:25;;;;;;;2.58;2.08;;;;;;;17.16;95.18;102349.56;6280156;22;20023;-77
2023/08/21 01:13:56;;;;;;;4.80;2.22;;;;;;;17.15;94.84;102353.44;6254212;22;20079;-77
2023/08/21 01:16:24;;;;;;;2.35;2.00;;;;;;;17.10;95.18;102354.03;6253630;22;20019;-77
2023/08/21 01:18:53;;;;;;;3.22;2.15;;;;;;;17.08;95.62;102353.72;6254366;22;20413;-78
2023/08/21 01:21:20;;;;;;;3.95;2.40;;;;;;;17.08;95.24;102356.41;6280526;22;20040;-77
2023/08/21 01:23:47;;;;;;;7.65;2.25;;;;;;;17.06;95.97;102354.16;6254070;22;20024;-78
2023/08/21 01:26:13;;;;;;;4.70;2.22;;;;;;;17.05;95.98;102352.66;6254013;22;20016;-78
2023/08/21 01:28:40;;;;;;;2.83;1.95;;;;;;;17.05;95.49;102355.34;6253170;22;20043;-77
2023/08/21 01:31:08;;;;;;;1.90;1.80;;;;;;;17.00;96.25;102348.63;6253507;22;20516;-78
2023/08/21 01:33:41;;;;;;;5.38;2.35;;;;;;;16.95;96.30;102354.56;6252825;22;20464;-78
2023/08/21 01:36:08;;;;;;;3.33;2.17;;;;;;;16.89;96.79;102356.34;6253781;22;20077;-78
2023/08/21 01:38:36;;;;;;;4.13;2.17;;;;;;;16.90;96.36;102354.41;6253778;22;20043;-78
2023/08/21 01:41:03;;;;;;;2.65;1.95;;;;;;;16.91;96.67;102361.28;6253738;22;20481;-77
2023/08/21 01:43:30;;;;;;;4.80;2.08;;;;;;;16.93;95.96;102362.34;6280404;22;20432;-77
2023/08/21 01:45:56;;;;;;;3.15;2.08;;;;;;;16.94;96.24;102355.03;6253707;22;20390;-78
2023/08/21 01:48:23;;;;;;;4.05;2.40;;;;;;;16.94;96.57;102363.84;6252360;22;20048;-77
2023/08/21 01:50:51;;;;;;;2.78;2.45;;;;;;;16.92;97.13;102368.16;6280947;22;20016;-78
2023/08/21 01:53:17;;;;;;;2.88;2.05;;;;;;;16.93;96.97;102370.41;6253420;22;20421;-77
2023/08/21 01:55:44;;;;;;;3.13;2.35;;;;;;;16.95;96.98;102364.59;6228364;22;20024;-78
2023/08/21 01:58:10;;;;;;;4.03;2.50;;;;;;;16.95;96.86;102356.53;6253787;22;20027;-77
2023/08/21 02:00:40;;;;;;;5.10;2.30;;;;;;;16.93;96.51;102372.34;6252963;22;20355;-77
2023/08/21 02:03:06;;;;;;;5.45;2.88;;;;;;;16.94;96.89;102368.47;6253000;22;20028;-78
2023/08/21 02:05:38;;;;;;;5.25;2.40;;;;;;;16.93;96.52;102365.03;6253377;22;20020;-77
2023/08/21 02:08:06;;;;;;;;;;;;;;;16.95;95.62;102365.34;6281644;22;20409;-77
2023/08/21 02:10:34;;;;;;;5.15;2.42;;;;;;;16.95;96.99;102372.66;6252923;22;19998;-79
2023/08/21 02:13:02;;;;;;;2.33;2.17;;;;;;;16.94;96.92;102366.53;6228533;22;20086;-78
2023/08/21 02:15:29;;;;;;;4.03;2.30;;;;;;;16.91;97.39;102367.41;6252988;22;20020;-78
2023/08/21 02:17:56;;;;;;;5.13;2.50;;;;;;;16.91;97.09;102359.34;6227821;22;20103;-79
2023/08/21 02:20:22;;;;;;;4.78;2.03;;;;;;;16.88;97.19;102359.47;6252968;22;20517;-79
2023/08/21 02:22:49;;;;;;;3.80;2.35;;;;;;;16.82;97.36;102362.00;6227872;22;20095;-78
2023/08/21 02:25:16;;;;;;;6.35;2.25;;;;;;;16.78;97.81;102364.09;6280965;22;20012;-78
2023/08/21 02:27:42;;;;;;;4.07;2.58;;;;;;;16.76;98.56;102366.50;6253096;22;20020;-78
2023/08/21 02:30:10;;;;;;;5.60;2.40;;;;;;;16.77;98.30;102361.84;6228155;22;20031;-78
2023/08/21 02:32:38;;;;;;;6.47;2.65;;;;;;;16.80;98.12;102363.63;6279915;22;20410;-78
2023/08/21 02:35:06;;;;;;;2.90;2.60;;;;;;;16.82;97.99;102362.00;6253500;22;20050;-78
2023/08/21 02:37:33;;;;;;;6.45;2.47;;;;;;;16.82;98.68;102358.56;6280532;22;20442;-78
2023/08/21 02:39:59;;;;;;;3.92;2.22;;;;;;;16.82;98.85;102366.63;6253628;22;20074;-78
2023/08/21 02:42:26;;;;;;;6.38;2.55;;;;;;;16.81;98.61;102367.81;6227717;22;20466;-78
2023/08/21 02:44:53;;;;;;;5.07;2.70;;;;;;;16.80;99.46;102367.06;6280875;22;20018;-76
2023/08/21 02:47:19;;;;;;;3.53;2.08;;;;;;;16.78;100.00;102368.75;6252098;22;20047;-77
2023/08/21 02:49:46;;;;;;;5.60;2.83;;;;;;;16.78;100.00;102369.47;6253459;22;20087;-77
2023/08/21 02:52:12;;;;;;;3.35;2.33;;;;;;;16.81;99.04;102367.81;6253360;22;20036;-77
2023/08/21 02:54:39;;;;;;;6.93;2.53;;;;;;;16.82;99.14;102372.75;6280391;22;20420;-77
2023/08/21 02:57:07;;;;;;;3.58;2.20;;;;;;;16.84;98.90;102367.69;6253122;22;20458;-77
2023/08/21 02:59:34;;;;;;;5.50;2.20;;;;;;;16.84;99.54;102369.63;6252717;22;20075;-77
2023/08/21 03:02:00;;;;;;;12.18;2.20;;;;;;;16.84;99.63;102364.25;6227701;22;20025;-77
2023/08/21 03:04:27;;;;;;;3.75;2.40;;;;;;;16.83;99.73;102363.50;6280020;22;20012;-77
2023/08/21 03:06:54;;;;;;;3.45;2.63;;;;;;;16.83;99.01;102368.13;6253353;22;20442;-78
2023/08/21 03:09:20;;;;;;;9.93;2.35;;;;;;;16.82;99.18;102362.00;6280206;22;20040;-77
2023/08/21 03:11:47;;;;;;;2.45;2.25;;;;;;;16.83;99.31;102368.88;6280756;22;20099;-77
2023/08/21 03:14:15;;;;;;;5.10;2.10;;;;;;;16.81;99.52;102373.94;6228523;22;20020;-77
2023/08/21 03:16:41;;;;;;;3.10;2.05;;;;;;;16.79;100.00;102373.69;6226839;22;20479;-77
2023/08/21 03:19:08;;;;;;;4.20;2.17;;;;;;;16.77;100.00;102369.94;6253236;22;20017;-77
2023/08/21 03:21:35;;;;;;;5.15;2.22;;;;;;;16.78;100.00;102371.44;6280224;22;20020;-78
2023/08/21 03:24:01;;;;;;;4.68;1.90;;;;;;;16.79;100.00;102370.22;6280773;22;20098;-77
2023/08/21 03:26:31;;;;;;;4.90;2.22;;;;;;;16.80;100.00;102372.44;6227564;22;20016;-77
2023/08/21 03:28:57;;;;;;;6.53;2.40;;;;;;;16.80;100.00;102366.31;6280714;22;20051;-78
2023/08/21 03:31:24;;;;;;;2.38;2.03;;;;;;;16.79;100.00;102364.84;6279214;22;20461;-78
2023/08/21 03:33:51;;;;;;;4.28;1.90;;;;;;;16.79;100.00;102364.84;6253080;22;20050;-77
2023/08/21 03:36:20;;;;;;;2.35;1.90;;;;;;;16.82;100.00;102372.00;6227432;22;20016;-77
2023/08/21 03:38:47;;;;;;;2.95;2.03;;;;;;;16.81;100.00;102368.56;6228122;22;20074;-77
2023/08/21 03:41:13;;;;;;;2.17;1.95;;;;;;;16.82;100.00;102361.25;6253571;22;20016;-77
2023/08/21 03:43:40;;;;;;;3.17;2.08;;;;;;;16.77;100.00;102365.28;6252670;22;20170;-77
2023/08/21 03:46:07;;;;;;;7.50;2.00;;;;;;;16.72;100.00;102352.44;6280200;22;20012;-77
2023/08/21 03:48:33;;;;;;;3.20;1.92;;;;;;;16.70;100.00;102352.13;6280000;22;20012;-77
2023/08/21 03:51:01;;;;;;;3.25;1.85;;;;;;;16.68;100.00;102357.19;6253055;22;20485;-77
2023/08/21 03:53:27;;;;;;;2.80;1.95;;;;;;;16.66;100.00;102352.25;6252462;22;20095;-77
2023/08/21 03:55:54;;;;;;;3.45;2.17;;;;;;;16.66;100.00;102357.63;6222697;22;20537;-77
2023/08/21 03:58:21;;;;;;;4.35;2.08;;;;;;;16.64;100.00;102353.88;6247397;22;20057;-77
2023/08/21 04:00:48;;;;;;;3.03;1.90;;;;;;;16.61;100.00;102358.19;6248193;22;20031;-77
2023/08/21 04:03:14;;;;;;;4.38;2.10;;;;;;;16.59;100.00;102357.88;6249796;22;20051;-77
2023/08/21 04:05:41;;;;;;;4.97;2.17;;;;;;;16.55;100.00;102354.56;6249122;22;20096;-78
2023/08/21 04:08:09;;;;;;;4.03;2.42;;;;;;;16.56;100.00;102358.00;6248353;22;20016;-77
2023/08/21 04:10:36;;;;;;;4.47;1.98;;;;;;;16.56;100.00;102358.00;6247122;22;20055;-77
2023/08/21 04:13:02;;;;;;;3.55;2.30;;;;;;;16.54;100.00;102357.69;6247415;22;20055;-77
2023/08/21 04:15:29;;;;;;;4.50;2.72;;;;;;;16.54;100.00;102360.38;6247701;22;20023;-77
2023/08/21 04:17:56;;;;;;;3.17;2.50;;;;;;;16.52;100.00;102362.75;6248099;22;20016;-77
2023/08/21 04:20:23;;;;;;;3.53;2.35;;;;;;;16.51;100.00;102363.94;6247646;22;20023;-77
2023/08/21 04:22:49;;;;;;;4.78;2.08;;;;;;;16.53;100.00;102377.69;6249914;22;20023;-77
2023/08/21 04:25:16;;;;;;;3.45;1.90;;;;;;;16.52;100.00;102374.25;6249798;22;20062;-77
2023/08/21 04:27:43;;;;;;;3.47;2.17;;;;;;;16.53;100.00;102373.06;6246787;22;20017;-77
2023/08/21 04:30:10;;;;;;;4.05;2.50;;;;;;;16.53;100.00;102372.31;6249656;22;20071;-77
2023/08/21 04:32:37;;;;;;;3.88;2.40;;;;;;;16.53;100.00;102373.06;6246629;22;20716;-77
2023/08/21 04:35:05;;;;;;;4.80;2.00;;;;;;;16.54;100.00;102371.13;6249901;22;20008;-78
2023/08/21 04:37:31;;;;;;;4.75;2.40;;;;;;;16.53;100.00;102367.69;6248767;22;20019;-77
2023/08/21 04:39:58;;;;;;;4.47;2.22;;;;;;;16.52;100.00;102370.81;6247329;22;20413;-78
2023/08/21 04:42:25;;;;;;;3.65;2.17;;;;;;;16.53;100.00;102369.63;6247995;22;20023;-77
2023/08/21 04:44:52;;;;;;;5.47;2.13;;;;;;;16.52;100.00;102371.56;6222008;22;20353;-77
2023/08/21 04:47:27;;;;;;;7.45;2.17;;;;;;;16.52;100.00;102374.25;6246952;22;20095;-75
2023/08/21 04:49:57;;;;;;;4.75;2.35;;;;;;;16.50;100.00;102370.53;6247841;22;20031;-78
2023/08/21 04:52:26;;;;;;;2.45;2.10;;;;;;;16.50;100.00;102376.63;6246466;22;20075;-76
2023/08/21 04:54:54;;;;;;;5.90;2.05;;;;;;;16.50;100.00;102379.34;6223437;22;20023;-75
2023/08/21 04:57:21;;;;;;;4.88;2.60;;;;;;;16.56;100.00;102379.50;6278816;22;20016;-75
2023/08/21 04:59:48;;;;;;;4.05;2.00;;;;;;;16.58;100.00;102372.50;6252759;22;20520;-76
2023/08/21 05:02:14;;;;;;;3.65;2.40;;;;;;;16.61;100.00;102376.25;6280135;22;20070;-77
2023/08/21 05:04:41;;;;;;;6.25;2.50;;;;;;;16.60;100.00;102378.19;6252006;22;20016;-76
2023/08/21 05:07:08;;;;;;;4.72;1.88;;;;;;;16.59;100.00;102379.38;6280123;22;20012;-76
2023/08/21 05:09:35;;;;;;;3.15;2.20;;;;;;;16.59;100.00;102384.00;6279489;22;20017;-75
2023/08/21 05:12:02;;;;;;;5.38;2.70;;;;;;;16.60;100.00;102390.88;6252132;22;20020;-76
2023/08/21 05:14:29;;;;;;;3.63;2.17;;;;;;;16.61;100.00;102387.75;6251965;22;20016;-75
2023/08/21 05:16:55;;;;;;;4.90;2.53;;;;;;;16.66;100.00;102389.16;6252474;22;20024;-79
2023/08/21 05:19:22;;;;;;;3.83;2.63;;;;;;;16.74;100.00;102397.69;6252192;22;20099;-76
2023/08/21 05:21:48;;;;;;;4.50;2.10;;;;;;;16.78;99.67;102401.75;6252562;22;20016;-76
2023/08/21 05:24:16;;;;;;;2.72;1.98;;;;;;;16.83;99.12;102400.41;6227590;22;20016;-76
2023/08/21 05:26:48;;;;;;;1.73;1.63;;;;;;;16.86;98.98;102402.22;6227845;22;20092;-76
2023/08/21 05:29:15;;;;;;;4.72;2.42;;;;;;;16.89;99.02;102399.38;6252559;22;20099;-76
2023/08/21 05:31:42;;;;;;;6.15;2.33;;;;;;;16.98;98.11;102401.38;6279274;22;20020;-76
2023/08/21 05:34:09;;;;;;;5.28;2.47;;;;;;;16.96;98.78;102395.69;6252567;22;20020;-77
2023/08/21 05:36:35;;;;;;;3.33;2.20;;;;;;;16.97;98.99;102397.94;6251769;22;20102;-77
2023/08/21 05:39:05;;;;;;;4.45;2.22;;;;;;;16.98;99.48;102388.66;6252513;22;20048;-77
2023/08/21 05:41:33;;;;;;;5.13;2.28;;;;;;;17.04;99.30;102393.47;6251279;22;20044;-77
2023/08/21 05:44:00;;;;;;;7.07;2.38;;;;;;;18.18;97.95;102400.25;6252304;22;20016;-77
2023/08/21 05:46:27;;;;;;;4.55;2.30;;;;;;;19.67;87.26;102404.06;6251646;22;20098;-77
2023/08/21 05:48:54;;;;;;;5.05;2.42;;;;;;;20.34;82.45;102401.78;6227246;22;20020;-77
2023/08/21 05:51:20;;;;;;;4.32;2.55;;;;;;;20.86;80.35;102403.56;6278834;22;20094;-77
2023/08/21 05:53:47;;;;;;;6.20;2.25;;;;;;;22.41;73.29;102407.69;6279855;22;20438;-79
2023/08/21 05:56:14;;;;;;;3.97;2.70;;;;;;;23.42;68.40;102406.28;6226447;22;20346;-78
2023/08/21 05:58:41;;;;;;;10.35;2.72;;;;;;;24.00;65.41;102406.66;6253406;22;20027;-79
2023/08/21 06:01:11;;;;;;;8.52;2.45;;;;;;;23.97;65.01;102413.84;6253806;22;20012;-79
2023/08/21 06:03:37;;;;;;;5.50;2.88;;;;;;;24.38;64.19;102410.66;6253144;22;20020;-78
2023/08/21 06:06:10;;;;;;;6.82;2.63;;;;;;;24.77;62.30;102408.59;6253199;22;20541;-80
2023/08/21 06:08:37;;;;;;;5.10;2.88;;;;;;;24.65;62.79;102407.16;6280411;22;20027;-79
2023/08/21 06:11:04;;;;;;;8.10;2.88;;;;;;;24.89;62.29;102412.75;6253024;22;20027;-75
2023/08/21 06:13:31;;;;;;;5.88;3.25;;;;;;;24.84;62.01;102410.06;6253291;22;20020;-93
2023/08/21 06:15:59;;;;;;;2.97;2.70;;;;;;;24.11;63.79;102409.38;6253461;22;20018;-78
2023/08/21 06:18:26;;;;;;;4.55;2.78;;;;;;;23.97;63.88;102413.09;6252786;22;20075;-77
2023/08/21 06:20:55;;;;;;;6.50;3.17;;;;;;;23.49;65.92;102417.44;6253816;22;20047;-78
2023/08/21 06:23:22;;;;;;;7.18;3.15;;;;;;;22.86;67.63;102406.78;6252362;22;20036;-76
2023/08/21 06:25:49;;;;;;;4.93;3.30;;;;;;;22.37;68.83;102418.06;6281065;22;20020;-84
2023/08/21 06:28:17;;;;;;;5.95;2.85;;;;;;;22.21;70.56;102413.97;6228793;22;20027;-83
2023/08/21 06:30:44;;;;;;;4.82;2.97;;;;;;;22.21;71.37;102416.69;6253942;22;20040;-83
2023/08/21 06:33:11;;;;;;;4.47;2.63;;;;;;;22.40;69.45;102417.81;6281298;22;20096;-85
2023/08/21 06:35:38;;;;;;;7.18;3.00;;;;;;;22.19;68.73;102413.72;6227962;22;20029;-82
2023/08/21 06:38:05;;;;;;;6.00;2.60;;;;;;;22.05;70.79;102415.31;6280532;22;20405;-77
2023/08/21 06:40:33;;;;;;;6.10;2.70;;;;;;;21.85;71.80;102420.78;6252574;22;20039;-75
2023/08/21 06:42:59;;;;;;;4.10;2.83;;;;;;;21.68;72.93;102423.31;6280814;22;20095;-78
2023/08/21 06:45:32;;;;;;;;;;;;;;;21.79;73.41;102420.72;6253350;22;20012;-79
2023/08/21 06:47:59;;;;;;;7.20;3.00;;;;;;;21.90;72.96;102420.84;6253286;22;19932;-76
2023/08/21 06:50:26;;;;;;;3.83;2.85;;;;;;;22.05;72.41;102420.00;6280242;22;20044;-78
2023/08/21 06:52:52;;;;;;;4.20;2.72;;;;;;;21.97;71.68;102419.66;6252766;22;20020;-79
2023/08/21 06:55:19;;;;;;;5.25;2.45;;;;;;;21.98;69.85;102418.44;6227227;22;20106;-78
2023/08/21 06:57:46;;;;;;;6.93;2.60;;;;;;;22.04;71.37;102413.81;6280594;22;20043;-79
2023/08/21 07:00:13;;;;;;;4.53;2.65;;;;;;;21.99;70.91;102419.94;6253354;22;20480;-78
2023/08/21 07:02:39;;;;;;;6.90;2.67;;;;;;;21.91;70.45;102422.31;6253191;22;20353;-79
2023/08/21 07:05:07;;;;;;;4.50;2.55;;;;;;;21.89;71.06;102421.31;6280883;22;20017;-78
2023/08/21 07:07:37;;;;;;;5.68;2.10;;;;;;;22.00;72.37;102426.81;6279497;22;20023;-78
2023/08/21 07:10:04;;;;;;;5.28;2.17;;;;;;;22.04;68.35;102421.22;6281012;22;20761;-79
2023/08/21 07:12:31;;;;;;;4.97;2.35;;;;;;;22.01;69.65;102419.44;6279991;22;20070;-78
2023/08/21 07:14:57;;;;;;;5.53;2.60;;;;;;;22.08;68.90;102419.03;6253268;22;20421;-79
2023/08/21 07:17:24;;;;;;;5.32;2.70;;;;;;;22.38;67.25;102424.97;6280081;22;20016;-77
2023/08/21 07:19:52;;;;;;;7.10;2.53;;;;;;;22.62;66.83;102423.41;6281410;22;20021;-78
2023/08/21 07:22:20;;;;;;;9.32;2.35;;;;;;;22.91;65.52;102424.34;6279776;22;20012;-78
2023/08/21 07:24:47;;;;;;;6.78;2.97;;;;;;;22.82;64.57;102430.72;6281146;22;20014;-79
2023/08/21 07:27:15;;;;;;;3.55;2.28;;;;;;;22.80;66.26;102432.41;6280868;22;20024;-79
2023/08/21 07:29:44;;;;;;;7.35;2.30;;;;;;;22.81;64.93;102429.22;6252505;22;20476;-79
2023/08/21 07:32:11;;;;;;;4.63;2.45;;;;;;;22.79;64.59;102431.69;6253334;22;20024;-80
2023/08/21 07:34:37;;;;;;;7.75;2.45;;;;;;;22.83;63.44;102432.19;6280074;22;20088;-76
2023/08/21 07:37:04;;;;;;;6.65;2.28;;;;;;;22.88;64.59;102430.75;6280189;22;20520;-76
2023/08/21 07:39:31;;;;;;;6.00;2.70;;;;;;;22.98;65.25;102425.88;6280679;22;20020;-78
2023/08/21 07:41:57;;;;;;;6.72;2.60;;;;;;;23.07;66.39;102431.09;6253917;22;20016;-81
2023/08/21 07:44:24;;;;;;;3.55;1.83;;;;;;;23.28;65.25;102432.41;6279880;22;20013;-80
2023/08/21 07:46:51;;;;;;;5.78;2.10;;;;;;;23.60;63.15;102431.06;6281085;22;20016;-79
2023/08/21 07:49:18;;;;;;;7.00;2.42;;;;;;;23.79;62.07;102425.94;6252983;22;20027;-80
2023/08/21 07:51:44;;;;;;;8.05;2.67;;;;;;;23.93;62.22;102433.13;6280346;22;20020;-79
2023/08/21 07:54:11;;;;;;;3.42;2.13;;;;;;;24.03;60.71;102432.88;6253658;22;20022;-79
2023/08/21 07:56:40;;;;;;;10.65;2.40;;;;;;;23.92;61.50;102434.38;6252566;22;20120;-80
2023/08/21 07:59:07;;;;;;;10.23;2.20;;;;;;;23.86;60.22;102435.59;6280855;22;20446;-79
2023/08/21 08:01:34;;;;;;;7.43;1.88;;;;;;;23.87;60.69;102431.63;6280048;22;20500;-78
2023/08/21 08:04:00;;;;;;;3.47;1.63;;;;;;;23.91;60.53;102434.84;6280744;22;20059;-79
2023/08/21 08:06:27;;;;;;;9.95;2.20;;;;;;;24.09;60.09;102436.34;6279246;22;20421;-79
2023/08/21 08:08:54;;;;;;;5.45;2.17;;;;;;;24.11;58.66;102431.16;6280805;22;20096;-76
2023/08/21 08:11:20;;;;;;;5.60;2.45;;;;;;;24.07;59.78;102431.41;6252395;22;20020;-78
2023/08/21 08:13:47;;;;;;;5.93;2.10;;;;;;;24.14;58.61;102432.88;6253515;22;20436;-79
2023/08/21 08:16:13;;;;;;;6.00;2.00;;;;;;;24.24;58.18;102428.69;6280513;22;20055;-80
2023/08/21 08:18:40;;;;;;;8.25;2.47;;;;;;;24.27;58.99;102436.63;6252802;22;20012;-80
2023/08/21 08:21:06;;;;;;;6.18;2.00;;;;;;;24.19;57.92;102440.31;6280151;22;20446;-77
2023/08/21 08:23:33;;;;;;;2.92;1.77;;;;;;;24.03;57.93;102443.75;6279918;22;20019;-77
2023/08/21 08:26:00;;;;;;;4.32;1.65;;;;;;;24.38;57.67;102452.22;6280614;22;20020;-78
2023/08/21 08:28:26;;;;;;;4.85;1.75;;;;;;;24.39;57.11;102447.53;6279600;22;20095;-77
2023/08/21 08:30:54;;;;;;;4.47;1.42;;;;;;;24.42;57.88;102435.63;6280456;22;20047;-77
2023/08/21 08:33:20;;;;;;;4.05;1.60;;;;;;;24.49;57.14;102444.03;6279844;22;20020;-77
2023/08/21 08:35:48;;;;;;;5.85;2.08;;;;;;;24.54;56.98;102431.66;6279872;22;20016;-77
2023/08/21 08:38:15;;;;;;;3.58;1.63;;;;;;;24.64;57.49;102443.78;6280621;22;20067;-77
2023/08/21 08:40:46;;;;;;;7.68;1.73;;;;;;;24.94;57.04;102439.25;6279879;22;20017;-78
2023/08/21 08:43:14;;;;;;;6.50;2.10;;;;;;;25.08;56.94;102434.78;6280380;22;20071;-78
2023/08/21 08:45:44;;;;;;;6.00;1.70;;;;;;;25.36;55.17;102442.84;6279598;22;20048;-78
2023/08/21 08:48:14;;;;;;;6.65;1.83;;;;;;;25.43;54.26;102445.03;6280398;22;20074;-77
2023/08/21 08:50:42;;;;;;;8.82;1.70;;;;;;;25.42;54.86;102453.72;6278998;22;20039;-76
2023/08/21 08:53:10;;;;;;;4.93;1.63;;;;;;;25.51;54.48;102453.44;6280153;22;20015;-77
2023/08/21 08:55:44;;;;;;;6.57;1.80;;;;;;;25.54;52.95;102444.25;6279580;22;20020;-78
2023/08/21 08:58:10;;;;;;;3.38;1.50;;;;;;;25.53;53.38;102445.47;6280172;22;20047;-75
2023/08/21 09:00:37;;;;;;;3.80;1.65;;;;;;;25.64;51.79;102439.97;6279575;22;20012;-76
2023/08/21 09:03:04;;;;;;;3.50;1.70;;;;;;;25.80;51.68;102443.84;6279649;22;20173;-76
2023/08/21 09:05:33;;;;;;;3.05;1.70;;;;;;;25.69;51.98;102441.19;6251950;22;20088;-77
2023/08/21 09:08:04;;;;;;;8.52;1.95;;;;;;;26.02;52.50;102438.22;6280158;22;20012;-78
2023/08/21 09:10:31;;;;;;;4.72;1.45;;;;;;;25.96;51.49;102434.09;6279658;22;20443;-75
2023/08/21 09:13:01;;;;;;;7.25;2.05;;;;;;;26.18;52.44;102431.91;6252618;22;20024;-76
2023/08/21 09:15:29;;;;;;;4.80;1.52;;;;;;;26.28;50.82;102429.59;6279314;22;20469;-74
2023/08/21 09:18:10;;;;;;;3.83;1.80;;;;;;;26.41;51.35;102431.72;6279692;22;20004;-74
2023/08/21 09:20:37;;;;;;;6.63;1.70;;;;;;;26.41;50.65;102437.19;6252018;22;20971;-74
2023/08/21 09:23:04;;;;;;;5.60;1.60;;;;;;;26.57;49.86;102439.03;6279929;22;20016;-74
2023/08/21 09:25:36;;;;;;;6.25;1.95;;;;;;;26.57;49.90;102430.84;6279255;22;20027;-73
2023/08/21 09:28:08;;;;;;;3.47;1.60;;;;;;;26.70;49.93;102433.69;6280068;22;20091;-76
2023/08/21 09:30:46;;;;;;;2.90;1.70;;;;;;;26.84;49.32;102432.53;6252475;22;20024;-77
2023/08/21 09:33:12;;;;;;;2.38;1.50;;;;;;;27.17;50.61;102427.97;6280583;22;20575;-76
2023/08/21 09:35:42;;;;;;;3.85;1.50;;;;;;;27.28;48.16;102433.28;6280402;22;20016;-76
2023/08/21 09:38:09;;;;;;;4.63;1.70;;;;;;;27.38;48.25;102436.38;6253974;22;20533;-76
2023/08/21 09:40:43;;;;;;;7.72;1.80;;;;;;;27.53;48.83;102431.22;6280643;22;20016;-76
2023/08/21 09:43:11;;;;;;;6.30;1.70;;;;;;;27.67;48.84;102430.03;6281619;22;20016;-76
2023/08/21 09:45:38;;;;;;;3.63;1.85;;;;;;;27.53;46.51;102437.41;6280650;22;20442;-76
2023/08/21 09:48:07;;;;;;;2.92;1.58;;;;;;;27.43;44.73;102430.09;6280496;22;20020;-77
2023/08/21 09:50:34;;;;;;;4.22;1.58;;;;;;;27.29;45.57;102429.28;6280724;22;20465;-77
2023/08/21 09:53:02;;;;;;;3.53;1.50;;;;;;;27.66;45.43;102417.59;6280601;22;20079;-77
2023/08/21 09:55:32;;;;;;;2.72;1.40;;;;;;;27.85;44.50;102420.31;6252715;22;20091;-77
2023/08/21 09:57:59;;;;;;;3.65;1.50;;;;;;;28.04;45.59;102420.25;6281207;22;20091;-76
2023/08/21 10:00:29;;;;;;;4.00;1.80;;;;;;;28.29;44.90;102412.66;6280344;22;20079;-78
2023/08/21 10:03:02;;;;;;;4.72;1.85;;;;;;;28.45;43.72;102409.59;6280556;22;20016;-76
2023/08/21 10:05:31;;;;;;;4.25;1.50;;;;;;;28.60;44.24;102416.56;6280465;22;20442;-77
2023/08/21 10:08:02;;;;;;;8.30;7.55;;;;;;;28.80;43.72;102411.16;6281130;22;20008;-77
2023/08/21 10:10:30;;;;;;;;;;;;;;;29.26;45.67;102409.00;6281235;22;20016;-76
2023/08/21 10:12:58;;;;;;;6.40;1.63;;;;;;;29.01;44.65;102410.53;6281150;22;19923;-77
2023/08/21 10:15:26;;;;;;;5.35;2.03;;;;;;;28.83;44.96;102407.41;6279957;22;20023;-76
2023/08/21 10:17:52;;;;;;;9.48;1.98;;;;;;;28.83;43.34;102401.16;6281341;22;20094;-76
2023/08/21 10:20:24;;;;;;;3.20;1.70;;;;;;;28.91;43.63;102401.28;6280445;22;20472;-77
2023/08/21 10:22:55;;;;;;;5.38;1.80;;;;;;;28.68;43.53;102398.22;6281322;22;20433;-77
2023/08/21 10:25:28;;;;;;;4.25;1.50;;;;;;;28.79;45.17;102395.28;6280534;22;20024;-76
2023/08/21 10:28:04;;;;;;;4.13;1.85;;;;;;;28.96;42.01;102397.69;6281158;22;20016;-76
2023/08/21 10:30:31;;;;;;;1.65;1.30;;;;;;;28.95;43.47;102401.69;6279816;22;20461;-77
2023/08/21 10:32:59;;;;;;;13.43;1.83;;;;;;;28.98;41.61;102397.88;6280836;22;20024;-75
2023/08/21 10:35:33;;;;;;;4.68;1.70;;;;;;;29.16;44.05;102397.75;6280498;22;20044;-76
2023/08/21 10:38:21;;;;;;;4.57;1.52;;;;;;;29.32;43.98;102406.88;6280963;22;20012;-77
2023/08/21 10:41:07;;;;;;;5.85;1.77;;;;;;;29.21;42.35;102412.59;6281206;22;20092;-74
2023/08/21 10:43:44;;;;;;;2.58;1.27;;;;;;;29.06;42.50;102407.69;6279618;22;20050;-74
2023/08/21 10:46:12;;;;;;;4.30;1.50;;;;;;;28.95;42.33;102405.16;6280402;22;20052;-74
2023/08/21 10:48:39;;;;;;;3.78;1.50;;;;;;;29.14;41.33;102405.78;6280289;22;20016;-74
2023/08/21 10:51:08;;;;;;;2.22;1.75;;;;;;;29.39;43.49;102408.22;6281209;22;20051;-75
2023/08/21 10:53:35;;;;;;;4.60;1.40;;;;;;;29.25;42.15;102413.00;6280210;22;20020;-74
2023/08/21 10:56:04;;;;;;;2.35;1.30;;;;;;;29.14;42.12;102408.50;6280875;22;20020;-74
2023/08/21 10:58:51;;;;;;;3.58;1.52;;;;;;;28.85;41.73;102409.59;6280236;22;20019;-74
2023/08/21 11:01:18;;;;;;;2.33;1.30;;;;;;;28.90;40.39;102399.81;6280781;22;20092;-74
2023/08/21 11:03:50;;;;;;;2.45;1.20;;;;;;;29.22;40.73;102397.59;6280949;22;20151;-73
2023/08/21 11:06:18;;;;;;;5.13;1.30;;;;;;;29.24;38.28;102392.34;6281121;22;20027;-74
2023/08/21 11:08:46;;;;;;;2.72;1.30;;;;;;;28.96;39.22;102390.19;6281297;22;20012;-75
2023/08/21 11:11:12;;;;;;;1.98;1.23;;;;;;;28.53;40.83;102399.50;6281043;22;20035;-74
2023/08/21 11:13:39;;;;;;;5.40;1.83;;;;;;;27.97;42.57;102407.19;6279939;22;20016;-74
2023/08/21 11:16:05;;;;;;;2.35;1.30;;;;;;;28.10;40.73;102391.53;6280980;22;20020;-74
2023/08/21 11:18:36;;;;;;;2.75;1.17;;;;;;;28.49;39.32;102396.31;6280179;22;20057;-74
2023/08/21 11:21:10;;;;;;;4.38;1.60;;;;;;;28.67;40.61;102389.28;6281347;22;20012;-75
2023/08/21 11:23:39;;;;;;;1.63;1.27;;;;;;;28.66;41.08;102393.28;6280228;22;20013;-75
2023/08/21 11:26:09;;;;;;;6.00;1.33;;;;;;;28.81;40.25;102395.47;6281257;22;20016;-74
2023/08/21 11:28:47;;;;;;;1.77;0.90;;;;;;;28.95;39.63;102393.47;6280185;22;20042;-74